This is the latest recevied weather packets stored in our database for station/object VA3ECP. If no packets are shown the sender has not sent any weather packets the latest 10 day(s).
| Time | Temp. | Humidity | Pressure | Rain* | Wind** | Luminosity | Snow |
|---|---|---|---|---|---|---|---|
| 1777186825 | 1.67° C | 86% | 1019 hPa | 0 mm | - | - | - |
| 1777183224 | 2.22° C | 83% | 1018.7 hPa | 0 mm | - | - | - |
| 1777176021 | 4.44° C | 76% | 1018.8 hPa | 0 mm | - | - | - |
| 1777171226 | 6.67° C | 68% | 1018.8 hPa | 0 mm | - | - | - |
| 1777169429 | 7.78° C | 65% | 1018.9 hPa | 0 mm | - | - | - |
| 1777165227 | 9.44° C | 56% | 1018.2 hPa | 0 mm | - | - | - |
| 1777164625 | 10° C | 55% | 1018 hPa | 0 mm | - | - | - |
| 1777162220 | 11.67° C | 52% | 1017.5 hPa | 0 mm | - | - | - |
| 1777161631 | 12.22° C | 50% | 1017.5 hPa | 0 mm | - | - | - |
| 1777158023 | 13.33° C | 45% | 1016.7 hPa | 0 mm | - | - | - |
| 1777155024 | 13.89° C | 44% | 1016.6 hPa | 0 mm | - | - | - |
| 1777150821 | 14.44° C | 43% | 1016.4 hPa | 0 mm | - | - | - |
| 1777143023 | 15° C | 43% | 1016.3 hPa | 0 mm | - | - | - |
| 1777140630 | 14.44° C | 45% | 1016.5 hPa | 0 mm | - | - | - |
| 1777140020 | 13.89° C | 45% | 1016.7 hPa | 0 mm | - | - | - |
| 1777138225 | 13.89° C | 45% | 1016.9 hPa | 0 mm | - | - | - |
| 1777137026 | 13.33° C | 46% | 1017.1 hPa | 0 mm | - | - | - |
| 1777136421 | 13.33° C | 47% | 1017.2 hPa | 0 mm | - | - | - |
| 1777135819 | 13.33° C | 46% | 1017.4 hPa | 0 mm | - | - | - |
| 1777134024 | 13.33° C | 47% | 1017.6 hPa | 0 mm | - | - | - |
| 1777128622 | 10.56° C | 54% | 1017.9 hPa | 0 mm | - | - | - |
| 1777123220 | 8.33° C | 59% | 1018 hPa | 0 mm | - | - | - |
| 1777121423 | 7.22° C | 65% | 1018 hPa | 0 mm | - | - | - |
| 1777119031 | 5° C | 71% | 1018.1 hPa | 0 mm | - | - | - |
| 1777116021 | 3.89° C | 72% | 1018.1 hPa | 0 mm | - | - | - |
* Rain latest hour (hover to see other rain measurements)
** Current wind speed in m/s (hover to see current wind gust speed)